Naomi, South Dakota
Current Conditions -  °F | °C
As of 9:56 AM on Sunday 21 Dec 2014 (Local Time) from KFSD Reporting Station
Moderate Fog Moderate Fog  
Wind Chill: 24°   Ceiling: 200
Heat Index: 33°   Visibility: 0.12mi
Dew Point: 33°   Wind: 12mph
Humidity: 100%   Direction: 180°S
Pressure: 29.74"   Gusts: NA
Location:  43.3014°N, 96.8655°W
Report Text: KFSD 211556Z 18010KT 1/8SM R03/1400V2200FT FG VV002 01/01 A2974 RMK AO2 TWR VIS M1/4 SLP085 I1000 T00060006
Loading
Personal Weather Stations






























Interactive Weather Map New forecast layout! Learn more

10-Day Weather Forecast

Advertisements
Track Severe Weather on mobile